Latest Weather Observations for Pirlangimpi

IDD60901

Issued at 9:01 pm CST Tuesday 21 April 2015 (issued every 10 minutes, with the page automatically refreshed every 10 minutes)

About weather observations | Map of Darwin area stations | Latest observations for Darwin area | Other Formats
Station Details ID: 014142 Name: PIRLANGIMPI AIRPORT Lat: -11.40 Lon: 130.42 Height: 18.3 m
Data from the previous 72 hours. | See also: Recent months at Pirlangimpi
Date/Time
CST
Tmp

°C
App
Tmp
°C
Dew
Point
°C
Rel
Hum
%
Delta-T

°C
Wind Press
QNH
hPa
Press
MSL
hPa
Rain
since
9 am
mm
Dir
 
Spd
km/h
Gust
km/h
Spd
kts
Gust
kts
21/09:00pm 24.1 28.0 22.5 91 1.1 E 6 11 3 6 1011.2 1011.1 8.4
21/08:30pm 24.0 27.6 22.4 91 1.1 ESE 7 11 4 6 1011.1 1011.0 8.4
21/08:00pm 24.3 28.1 22.7 91 1.1 E 7 11 4 6 1011.1 1011.0 8.4
21/07:30pm 24.3 28.5 23.1 93 0.8 ESE 6 9 3 5 1010.6 1010.5 8.4
21/07:00pm 24.5 28.7 23.5 94 0.7 E 7 9 4 5 1010.9 1010.8 8.4
21/06:30pm 24.4 28.6 23.2 93 0.8 E 6 7 3 4 1010.8 1010.7 8.2
21/06:00pm 24.5 27.7 23.1 92 0.9 ESE 11 19 6 10 1010.6 1010.5 7.8
21/05:30pm 24.8 28.3 23.6 93 0.8 SE 11 20 6 11 1010.4 1010.3 7.4
21/05:00pm 24.8 27.6 23.0 90 1.2 ESE 13 20 7 11 1010.2 1010.1 7.2
21/04:30pm 26.6 28.7 23.1 81 2.4 E 17 30 9 16 1009.9 1009.8 1.2
21/04:00pm 30.8 34.1 23.2 64 5.2 SE 11 19 6 10 1008.9 1008.8 0.0
21/03:30pm 30.9 34.0 22.8 62 5.6 ESE 11 17 6 9 1008.7 1008.6 0.0
21/03:00pm 30.8 34.0 22.4 61 5.7 SE 9 28 5 15 1008.9 1008.8 0.0
21/02:30pm 32.5 36.4 24.3 62 5.8 SSE 11 15 6 8 1009.1 1009.0 0.0
21/02:00pm 31.5 34.8 23.9 64 5.3 SE 13 20 7 11 1009.7 1009.6 0.0
21/01:30pm 30.1 34.8 24.0 70 4.2 SE 6 9 3 5 1010.0 1009.9 0.0
21/01:00pm 29.6 33.2 23.1 68 4.5 S 9 15 5 8 1010.2 1010.1 0.0
21/12:30pm 30.1 33.9 22.8 65 5.0 SE 7 17 4 9 1010.5 1010.4 0.0
21/12:00pm 31.2 33.3 21.7 57 6.4 ESE 13 24 7 13 1010.7 1010.6 0.0
21/11:30am 31.1 33.0 22.1 58 6.1 ESE 15 28 8 15 1011.2 1011.1 0.0
21/11:00am 30.3 31.9 22.2 62 5.5 ESE 17 24 9 13 1011.6 1011.5 0.0
21/10:30am 30.5 33.0 22.4 62 5.5 ESE 13 22 7 12 1011.9 1011.8 0.0
21/10:00am 30.7 34.1 23.4 65 5.0 ESE 11 24 6 13 1012.0 1011.9 0.0
21/09:30am 29.7 32.8 22.9 67 4.7 ESE 11 17 6 9 1011.8 1011.7 0.0
21/09:00am 28.5 32.7 23.4 74 3.5 ESE 7 9 4 5 1011.5 1011.4 0.0
21/08:30am 27.3 31.4 23.3 79 2.7 SE 7 11 4 6 1011.3 1011.2 0.0
21/08:00am 26.0 30.3 22.7 82 2.2 ESE 4 7 2 4 1011.2 1011.1 0.0
21/07:30am 25.0 29.1 22.3 85 1.8 SE 4 6 2 3 1011.0 1010.9 0.0
21/07:00am 24.5 28.5 22.0 86 1.7 ESE 4 6 2 3 1010.7 1010.6 0.0
21/06:30am 24.9 28.7 21.6 82 2.2 ESE 4 6 2 3 1010.4 1010.3 0.0
21/06:00am 25.3 28.6 21.4 79 2.6 SE 6 7 3 4 1010.0 1009.9 0.0
21/05:30am 25.7 29.0 21.4 77 2.9 SE 6 7 3 4 1009.7 1009.6 0.0
21/05:00am 25.8 29.2 21.7 78 2.7 ESE 6 11 3 6 1009.4 1009.3 0.0
21/04:30am 25.9 29.1 21.3 76 3.1 SE 6 9 3 5 1009.7 1009.6 0.0
21/04:00am 26.5 29.6 21.5 74 3.3 SE 7 11 4 6 1009.7 1009.6 0.0
21/03:30am 27.1 30.0 21.8 73 3.6 ESE 9 15 5 8 1009.8 1009.7 0.0
21/03:00am 27.2 29.7 21.7 72 3.7 ESE 11 19 6 10 1010.1 1010.0 0.0
21/02:30am 27.2 30.9 22.6 76 3.1 SE 7 15 4 8 1010.4 1010.3 0.0
21/02:00am 26.9 31.1 23.2 80 2.5 E 6 9 3 5 1010.2 1010.1 0.0
21/01:30am 26.4 30.7 23.3 83 2.1 SE 6 9 3 5 1010.5 1010.4 0.0
21/01:00am 26.4 31.1 23.3 83 2.1 ESE 4 6 2 3 1010.7 1010.6 0.0
21/12:30am 25.9 30.0 23.0 84 2.0 ENE 6 9 3 5 1011.0 1010.9 0.0
21/12:00am 25.7 29.8 23.0 85 1.8 E 6 7 3 4 1010.9 1010.8 0.0
 
Date/Time
CST
Tmp

°C
App
Tmp
°C
Dew
Point
°C
Rel
Hum
%
Delta-T

°C
Wind Press
QNH
hPa
Press
MSL
hPa
Rain
since
9 am
mm
Dir
 
Spd
km/h
Gust
km/h
Spd
kts
Gust
kts
20/11:30pm 25.9 30.5 23.2 85 1.8 ESE 4 6 2 3 1010.9 1010.8 0.0
20/11:00pm 26.0 30.6 23.1 84 2.0 ESE 4 6 2 3 1011.1 1011.0 0.0
20/10:30pm 25.8 30.5 23.3 86 1.7 ESE 4 6 2 3 1011.0 1010.9 0.0
20/10:00pm 25.9 31.1 23.6 87 1.6 SE 2 4 1 2 1011.1 1011.0 0.0
20/09:30pm 25.9 31.1 23.6 87 1.6 SSE 2 2 1 1 1010.9 1010.8 0.0
20/09:00pm 26.3 31.2 23.6 85 1.8 SE 4 4 2 2 1010.9 1010.8 0.0
20/08:30pm 26.5 31.4 23.6 84 2.0 E 4 6 2 3 1010.8 1010.7 0.0
20/08:00pm 26.7 31.7 23.8 84 2.0 ESE 4 6 2 3 1010.3 1010.2 0.0
20/07:30pm 26.7 31.8 24.0 85 1.9 E 4 6 2 3 1009.8 1009.7 0.0
20/07:00pm 27.4 32.5 24.1 82 2.3 ENE 4 4 2 2 1009.5 1009.4 0.0
20/06:30pm 28.4 33.0 23.8 76 3.2 E 6 7 3 4 1009.2 1009.1 0.0
20/06:00pm 28.9 33.4 24.0 75 3.4 ESE 7 11 4 6 1008.9 1008.8 0.0
20/05:30pm 29.2 33.3 23.9 73 3.7 ESE 9 15 5 8 1008.5 1008.4 0.0
20/05:00pm 29.4 33.5 24.0 72 3.7 E 9 15 5 8 1008.5 1008.4 0.0
20/04:30pm 29.5 32.5 23.4 69 4.2 E 13 20 7 11 1008.3 1008.2 0.0
20/04:00pm 30.2 33.0 23.6 67 4.6 E 15 24 8 13 1008.1 1008.0 0.0
20/03:30pm 31.3 34.6 23.9 64 5.2 ENE 13 24 7 13 1008.3 1008.2 0.0
20/03:00pm 31.4 35.0 23.8 64 5.3 E 11 20 6 11 1008.7 1008.6 0.0
20/02:30pm 32.0 34.7 23.5 60 5.9 E 15 24 8 13 1009.1 1009.0 0.0
20/02:00pm 32.4 34.7 23.4 59 6.2 E 17 35 9 19 1009.5 1009.4 0.0
20/01:30pm 32.3 35.4 24.1 62 5.7 E 15 30 8 16 1009.8 1009.7 0.0
20/01:00pm 32.2 34.5 23.4 59 6.1 E 17 30 9 16 1010.2 1010.1 0.0
20/12:30pm 32.0 34.9 23.8 62 5.7 E 15 32 8 17 1010.5 1010.4 0.0
20/12:00pm 31.4 33.9 23.8 64 5.3 E 17 24 9 13 1011.0 1010.9 0.0
20/11:30am 30.7 32.5 23.6 66 4.9 ESE 20 37 11 20 1011.2 1011.1 0.0
20/11:00am 30.5 33.5 23.4 66 4.9 SE 13 28 7 15 1011.5 1011.4 0.0
20/10:30am 30.2 33.5 23.9 69 4.4 SE 13 22 7 12 1011.6 1011.5 0.0
20/10:00am 30.5 33.2 24.2 69 4.4 ESE 17 32 9 17 1011.7 1011.6 0.0
20/09:30am 29.7 34.2 25.2 77 3.2 ESE 11 19 6 10 1011.4 1011.3 0.0
20/09:00am 26.9 32.3 25.1 90 1.3 SSE 6 9 3 5 1011.1 1011.0 11.0
20/08:30am 25.6 30.4 24.2 92 1.0 SE 6 9 3 5 1011.0 1010.9 11.0
20/08:00am 24.7 29.2 23.7 94 0.7 SE 6 11 3 6 1011.0 1010.9 11.0
20/07:30am 24.2 28.9 23.3 95 0.6 SE 4 6 2 3 1011.0 1010.9 11.0
20/07:00am 23.6 28.1 22.9 96 0.5 ESE 4 7 2 4 1010.9 1010.8 11.0
20/06:30am 23.5 27.9 22.8 96 0.5 SE 4 6 2 3 1010.8 1010.7 11.0
20/06:00am 23.5 28.7 22.8 96 0.5 CALM 0 2 0 1 1010.6 1010.5 11.0
20/05:30am 23.5 27.5 22.7 95 0.5 E 6 6 3 3 1010.6 1010.5 11.0
20/05:00am 23.4 27.7 22.6 95 0.5 SE 4 6 2 3 1010.4 1010.3 11.0
20/04:30am 23.4 27.1 22.2 93 0.8 SE 6 7 3 4 1010.7 1010.6 11.0
20/04:00am 23.6 24.8 21.5 88 1.4 ESE 17 50 9 27 1010.9 1010.8 9.0
20/03:54am 24.0 24.3 20.5 81 2.3 SE 19 50 10 27 1011.6 1011.5 3.4
20/03:53am 24.2 25.2 21.1 83 2.0 SE 17 50 9 27 1011.6 1011.5 1.8
20/03:30am 25.6 30.0 24.4 93 0.8 S 9 28 5 15 1011.6 1011.5 0.0
20/03:00am 25.3 30.9 24.3 94 0.7 ENE 2 2 1 1 1011.4 1011.3 0.0
20/02:30am 25.3 30.9 24.3 94 0.7 ENE 2 4 1 2 1011.1 1011.0 0.0
20/02:00am 25.4 31.5 24.4 94 0.7 CALM 0 2 0 1 1011.1 1011.0 0.0
20/01:30am 25.3 31.3 24.3 94 0.7 CALM 0 0 0 0 1011.2 1011.1 0.0
20/01:00am 25.3 30.8 24.1 93 0.8 SW 2 4 1 2 1011.4 1011.3 0.0
20/12:30am 25.5 31.5 24.3 93 0.8 CALM 0 0 0 0 1012.0 1011.9 0.0
20/12:00am 25.5 31.5 24.3 93 0.8 CALM 0 0 0 0 1012.1 1012.0 0.0
 
Date/Time
CST
Tmp

°C
App
Tmp
°C
Dew
Point
°C
Rel
Hum
%
Delta-T

°C
Wind Press
QNH
hPa
Press
MSL
hPa
Rain
since
9 am
mm
Dir
 
Spd
km/h
Gust
km/h
Spd
kts
Gust
kts
19/11:30pm 25.3 31.2 24.1 93 0.8 CALM 0 4 0 2 1012.2 1012.1 0.0
19/11:00pm 25.4 31.4 24.2 93 0.8 CALM 0 2 0 1 1011.9 1011.8 0.0
19/10:30pm 25.4 30.6 24.2 93 0.8 N 4 4 2 2 1011.7 1011.6 0.0
19/10:00pm 25.5 31.0 24.1 92 1.0 NE 2 4 1 2 1011.7 1011.6 0.0
19/09:30pm 25.7 31.3 24.3 92 1.0 NE 2 4 1 2 1011.9 1011.8 0.0
19/09:00pm 25.9 31.9 24.3 91 1.1 CALM 0 0 0 0 1011.7 1011.6 0.0
19/08:30pm 26.1 32.0 24.1 89 1.4 CALM 0 0 0 0 1011.3 1011.2 0.0
19/08:00pm 26.4 32.3 24.1 87 1.6 CALM 0 0 0 0 1011.0 1010.9 0.0
19/07:30pm 26.9 32.9 24.2 85 1.9 CALM 0 0 0 0 1010.7 1010.6 0.0
19/07:00pm 27.6 33.0 23.8 80 2.6 NE 2 2 1 1 1010.3 1010.2 0.0
19/06:30pm 28.6 33.6 23.9 75 3.3 NE 4 7 2 4 1010.0 1009.9 0.0
19/06:00pm 29.6 34.2 23.8 71 4.0 NNE 6 13 3 7 1009.6 1009.5 0.0
19/05:30pm 31.4 36.2 24.5 67 4.8 NNE 7 13 4 7 1009.4 1009.3 0.0
19/05:00pm 32.6 37.9 24.4 62 5.8 NNE 4 7 2 4 1009.1 1009.0 0.0
19/04:30pm 32.7 37.7 24.5 62 5.8 NNE 6 11 3 6 1009.0 1008.9 0.0
19/04:00pm 33.7 37.8 24.0 57 6.8 NE 9 19 5 10 1008.9 1008.8 0.0
19/03:30pm 34.0 37.8 23.4 54 7.4 NE 9 17 5 9 1008.9 1008.8 0.0
19/03:00pm 34.1 37.0 23.2 53 7.6 ENE 13 20 7 11 1009.0 1008.9 0.0
19/02:30pm 34.6 38.1 23.6 52 7.7 ENE 11 20 6 11 1009.3 1009.2 0.0
19/02:00pm 34.3 38.2 23.6 53 7.5 ENE 9 19 5 10 1009.6 1009.5 0.0
19/01:30pm 34.1 38.1 23.8 55 7.2 ENE 9 15 5 8 1009.8 1009.7 0.0
19/01:00pm 33.7 39.1 25.4 62 5.9 ENE 7 19 4 10 1010.1 1010.0 0.0
19/12:30pm 31.8 35.0 23.1 60 6.0 E 11 17 6 9 1010.4 1010.3 0.0
19/12:00pm 32.9 36.3 24.1 60 6.2 ESE 13 20 7 11 1010.8 1010.7 0.0
19/11:30am 32.8 36.9 24.6 62 5.8 E 11 17 6 9 1011.3 1011.2 0.0
19/11:00am 31.2 35.0 24.1 66 4.9 ESE 11 17 6 9 1011.9 1011.8 0.0
19/10:30am 29.6 34.9 24.9 76 3.3 ESE 6 11 3 6 1012.1 1012.0 0.0
19/10:00am 29.3 32.9 24.4 75 3.4 E 13 22 7 12 1012.2 1012.1 0.0
19/09:30am 29.7 35.1 25.4 78 3.0 E 7 11 4 6 1012.5 1012.4 0.0
19/09:00am 28.3 33.2 25.3 84 2.1 E 9 15 5 8 1012.5 1012.4 5.0
19/08:30am 27.0 32.3 25.0 89 1.4 ESE 6 13 3 7 1012.5 1012.4 5.0
19/08:00am 26.1 30.5 24.5 91 1.1 E 9 15 5 8 1012.1 1012.0 5.0
19/07:30am 24.8 29.5 23.9 95 0.6 E 6 9 3 5 1011.8 1011.7 4.8
19/07:00am 24.2 28.9 23.3 95 0.6 ESE 4 6 2 3 1011.4 1011.3 4.8
19/06:30am 24.2 29.3 23.3 95 0.6 SE 2 4 1 2 1011.1 1011.0 4.8
19/06:00am 24.5 29.3 23.5 94 0.7 ESE 4 7 2 4 1011.0 1010.9 4.8
19/05:30am 24.7 29.3 23.8 95 0.6 E 6 7 3 4 1010.5 1010.4 4.8
19/05:00am 24.5 29.4 23.6 95 0.6 ESE 4 6 2 3 1010.5 1010.4 4.8
19/04:30am 24.7 29.7 23.8 95 0.6 ESE 4 6 2 3 1010.6 1010.5 4.8
19/04:00am 24.7 29.7 23.8 95 0.6 SE 4 6 2 3 1010.6 1010.5 4.8
19/03:30am 24.5 30.1 23.5 94 0.7 CALM 0 4 0 2 1010.6 1010.5 4.8
19/03:00am 24.6 29.9 23.7 95 0.6 SSE 2 2 1 1 1010.9 1010.8 4.8
19/02:30am 24.7 30.0 23.7 94 0.7 SSE 2 4 1 2 1010.8 1010.7 4.8
19/02:00am 24.9 30.0 24.0 95 0.6 SE 4 4 2 2 1010.9 1010.8 4.8
19/01:30am 24.8 29.8 23.8 94 0.7 E 4 6 2 3 1011.0 1010.9 4.8
19/01:00am 24.9 30.7 23.9 94 0.7 CALM 0 0 0 0 1011.3 1011.2 4.8
19/12:30am 24.9 30.7 23.9 94 0.7 CALM 0 0 0 0 1011.9 1011.8 4.8
19/12:00am 25.0 30.8 24.0 94 0.7 CALM 0 0 0 0 1012.0 1011.9 4.8
 
Date/Time
CST
Tmp

°C
App
Tmp
°C
Dew
Point
°C
Rel
Hum
%
Delta-T

°C
Wind Press
QNH
hPa
Press
MSL
hPa
Rain
since
9 am
mm
Dir
 
Spd
km/h
Gust
km/h
Spd
kts
Gust
kts
18/11:30pm 24.9 30.7 23.9 94 0.7 CALM 0 0 0 0 1012.0 1011.9 4.8
18/11:00pm 25.0 30.9 24.1 95 0.6 CALM 0 2 0 1 1011.9 1011.8 4.8
18/10:30pm 25.0 30.9 24.1 95 0.6 CALM 0 0 0 0 1011.9 1011.8 4.8
18/10:00pm 24.9 30.7 23.9 94 0.7 CALM 0 0 0 0 1011.9 1011.8 4.8
18/09:30pm 25.0 30.8 24.0 94 0.7 CALM 0 0 0 0 1011.7 1011.6 4.8

Latest Capital City Observations: Canberra | Sydney | Melbourne | Brisbane | Adelaide | Perth | Hobart | Darwin

Other Formats:

Comma delimited format used in spreadsheet applications
http://www.bom.gov.au/fwo/IDD60901/IDD60901.94119.axf

JavaScript Object Notation format (JSON) in row-major order
http://www.bom.gov.au/fwo/IDD60901/IDD60901.94119.json